createdAt,value
2018-03-29T00:00:32.277Z,37.50
2018-03-29T00:03:00.029Z,44.07
2018-03-29T00:05:27.047Z,36.70
2018-03-29T00:07:54.070Z,42.60
2018-03-29T00:10:21.081Z,40.40
2018-03-29T00:12:48.830Z,39.73
2018-03-29T00:15:15.897Z,45.27
2018-03-29T00:17:43.691Z,46.17
2018-03-29T00:20:11.406Z,43.37
2018-03-29T00:22:39.194Z,46.90
2018-03-29T00:25:06.948Z,39.63
2018-03-29T00:27:33.958Z,45.77
2018-03-29T00:30:00.989Z,41.80
2018-03-29T00:32:28.026Z,38.80
2018-03-29T00:34:55.077Z,34.47
2018-03-29T00:37:22.068Z,39.63
2018-03-29T00:39:49.077Z,37.03
2018-03-29T00:42:16.085Z,39.03
2018-03-29T00:44:43.829Z,39.10
2018-03-29T00:47:12.439Z,37.17
2018-03-29T00:49:39.446Z,37.00
2018-03-29T00:52:06.489Z,36.00
2018-03-29T00:54:33.502Z,40.70
2018-03-29T00:57:00.553Z,34.93
2018-03-29T00:59:27.562Z,39.90
2018-03-29T01:01:54.866Z,32.07
2018-03-29T01:04:21.949Z,32.10
2018-03-29T01:06:48.956Z,34.03
2018-03-29T01:09:15.981Z,33.37
2018-03-29T01:11:43.053Z,32.30
2018-03-29T01:14:10.093Z,36.47
2018-03-29T01:16:37.108Z,32.97
2018-03-29T01:19:04.151Z,31.90
2018-03-29T01:21:31.934Z,32.63
2018-03-29T01:23:58.944Z,32.20
2018-03-29T01:26:25.937Z,32.77
2018-03-29T01:28:52.980Z,38.30
2018-03-29T01:31:19.996Z,37.93
2018-03-29T01:33:47.061Z,30.07
2018-03-29T01:36:14.070Z,34.70
2018-03-29T01:38:41.082Z,33.73
2018-03-29T01:41:08.114Z,38.23
2018-03-29T01:43:35.121Z,36.03
2018-03-29T01:46:02.884Z,37.10
2018-03-29T01:48:29.874Z,34.67
2018-03-29T01:50:56.927Z,36.70
2018-03-29T01:53:23.932Z,34.73
2018-03-29T01:55:51.682Z,36.00
2018-03-29T01:58:18.714Z,32.83
2018-03-29T02:00:46.445Z,39.50
2018-03-29T02:03:13.457Z,36.03
2018-03-29T02:05:40.507Z,42.40
2018-03-29T02:08:07.617Z,40.50
2018-03-29T02:10:34.850Z,34.00
2018-03-29T02:13:01.913Z,35.27
2018-03-29T02:15:29.079Z,33.70
2018-03-29T02:17:56.118Z,33.97
2018-03-29T02:20:23.148Z,31.67
2018-03-29T02:22:50.190Z,37.10
2018-03-29T02:25:17.477Z,33.90
2018-03-29T02:27:44.565Z,38.67
2018-03-29T02:30:11.585Z,37.50
2018-03-29T02:32:39.338Z,37.07
2018-03-29T02:35:06.398Z,38.23
2018-03-29T02:37:34.148Z,36.80
2018-03-29T02:40:01.191Z,38.63
2018-03-29T02:42:29.175Z,36.47
2018-03-29T02:44:56.979Z,37.83
2018-03-29T02:47:24.045Z,34.93
2018-03-29T02:49:51.241Z,38.20
2018-03-29T02:52:18.998Z,39.90
2018-03-29T02:54:46.031Z,40.60
2018-03-29T02:57:13.087Z,39.30
2018-03-29T02:59:40.319Z,36.47
2018-03-29T03:02:07.499Z,36.07
2018-03-29T03:04:34.594Z,35.17
2018-03-29T03:07:02.337Z,39.00
2018-03-29T03:09:30.125Z,37.50
2018-03-29T03:11:57.126Z,38.03
2018-03-29T03:14:24.172Z,35.40
2018-03-29T03:16:51.213Z,39.37
2018-03-29T03:19:18.217Z,33.70
2018-03-29T03:21:45.254Z,35.00
2018-03-29T03:24:13.038Z,32.63
2018-03-29T03:26:40.046Z,33.93
2018-03-29T03:29:07.778Z,28.00
2018-03-29T03:31:35.532Z,30.50
2018-03-29T03:34:02.586Z,29.37
2018-03-29T03:36:29.832Z,31.23
2018-03-29T03:38:57.025Z,31.10
2018-03-29T03:41:24.081Z,31.03
2018-03-29T03:43:51.121Z,29.30
2018-03-29T03:46:18.157Z,27.80
2018-03-29T03:48:45.921Z,31.20
2018-03-29T03:51:12.922Z,35.03
2018-03-29T03:53:39.956Z,35.80
2018-03-29T03:56:07.015Z,30.30
2018-03-29T03:58:34.762Z,34.80
2018-03-29T04:01:01.810Z,34.93
2018-03-29T04:03:28.847Z,29.07
2018-03-29T04:05:55.868Z,28.27
2018-03-29T04:08:22.861Z,30.83
2018-03-29T04:10:49.891Z,32.70
2018-03-29T04:13:16.923Z,30.60
2018-03-29T04:15:44.661Z,29.10
2018-03-29T04:18:12.792Z,31.93
2018-03-29T04:20:39.870Z,29.03
2018-03-29T04:23:06.905Z,30.40
2018-03-29T04:25:34.147Z,27.90
2018-03-29T04:28:01.310Z,27.97
2018-03-29T04:30:28.426Z,30.53
2018-03-29T04:32:55.694Z,27.40
2018-03-29T04:35:22.734Z,27.23
2018-03-29T04:37:49.728Z,28.90
2018-03-29T04:40:17.830Z,28.93
2018-03-29T04:42:45.221Z,33.03
2018-03-29T04:45:12.294Z,29.83
2018-03-29T04:47:39.301Z,29.57
2018-03-29T04:50:06.873Z,27.57
2018-03-29T04:52:33.961Z,29.80
2018-03-29T04:55:01.718Z,27.33
2018-03-29T04:57:28.733Z,29.80
2018-03-29T04:59:55.756Z,31.40
2018-03-29T05:02:22.769Z,29.23
2018-03-29T05:04:50.585Z,31.37
2018-03-29T05:07:17.602Z,32.80
2018-03-29T05:09:44.606Z,31.20
2018-03-29T05:12:11.618Z,29.30
2018-03-29T05:14:38.770Z,33.90
2018-03-29T05:17:05.829Z,28.57
2018-03-29T05:19:32.909Z,28.17
2018-03-29T05:22:00.661Z,29.93
2018-03-29T05:24:27.658Z,26.47
2018-03-29T05:26:54.734Z,30.63
2018-03-29T05:29:21.754Z,29.63
2018-03-29T05:31:48.784Z,29.03
2018-03-29T05:34:15.810Z,29.53
2018-03-29T05:36:42.853Z,31.00
2018-03-29T05:39:09.872Z,32.60
2018-03-29T05:41:36.857Z,28.13
2018-03-29T05:44:03.893Z,29.00
2018-03-29T05:46:30.918Z,27.00
2018-03-29T05:48:57.940Z,27.90
2018-03-29T05:51:24.991Z,30.90
2018-03-29T05:53:52.038Z,27.67
2018-03-29T05:56:19.029Z,33.60
2018-03-29T05:58:46.781Z,28.80
2018-03-29T06:01:13.801Z,31.77
2018-03-29T06:03:40.831Z,32.47
2018-03-29T06:06:07.869Z,30.70
2018-03-29T06:08:34.903Z,27.67
2018-03-29T06:11:02.719Z,29.30
2018-03-29T06:13:29.794Z,28.03
2018-03-29T06:16:03.449Z,27.40
2018-03-29T06:18:31.401Z,33.20
2018-03-29T06:20:58.430Z,32.37
2018-03-29T06:23:26.209Z,29.20
2018-03-29T06:25:53.253Z,30.27
2018-03-29T06:28:20.286Z,32.83
2018-03-29T06:30:48.054Z,28.53
2018-03-29T06:33:15.060Z,28.97
2018-03-29T06:35:42.089Z,28.60
2018-03-29T06:38:09.114Z,29.13
2018-03-29T06:40:36.182Z,28.37
2018-03-29T06:43:04.000Z,34.33
2018-03-29T06:45:31.018Z,28.80
2018-03-29T06:47:58.209Z,27.93
2018-03-29T06:50:25.951Z,29.00
2018-03-29T06:52:53.701Z,28.80
2018-03-29T06:55:20.764Z,27.73
2018-03-29T06:57:47.773Z,29.57
2018-03-29T07:00:14.793Z,28.77
2018-03-29T07:02:42.540Z,27.00
2018-03-29T07:05:10.289Z,24.33
2018-03-29T07:07:38.097Z,32.67
2018-03-29T07:10:05.154Z,26.80
2018-03-29T07:12:32.898Z,27.30
2018-03-29T07:15:00.073Z,29.47
2018-03-29T07:17:27.111Z,34.83
2018-03-29T07:19:54.124Z,31.23
2018-03-29T07:22:21.894Z,26.53
2018-03-29T07:24:48.937Z,31.67
2018-03-29T07:27:16.871Z,28.13
2018-03-29T07:29:43.890Z,32.27
2018-03-29T07:32:10.931Z,29.60
2018-03-29T07:34:37.957Z,29.80
2018-03-29T07:37:04.949Z,28.23
2018-03-29T07:39:32.090Z,27.30
2018-03-29T07:41:59.105Z,24.93
2018-03-29T07:44:26.134Z,25.60
2018-03-29T07:46:53.918Z,28.10
2018-03-29T07:49:20.938Z,26.57
2018-03-29T07:51:47.969Z,25.93
2018-03-29T07:54:15.789Z,25.77
2018-03-29T07:56:42.794Z,24.73
2018-03-29T07:59:10.537Z,28.33
2018-03-29T08:01:37.598Z,27.20
2018-03-29T08:04:04.635Z,29.87
2018-03-29T08:06:31.641Z,28.93
2018-03-29T08:08:58.656Z,26.77
2018-03-29T08:11:26.457Z,26.50
2018-03-29T08:13:53.544Z,26.37
2018-03-29T08:16:20.542Z,28.63
2018-03-29T08:18:47.568Z,29.50
2018-03-29T08:21:15.325Z,30.13
2018-03-29T08:23:42.356Z,29.53
2018-03-29T08:26:09.370Z,34.27
2018-03-29T08:28:36.534Z,28.80
2018-03-29T08:31:03.541Z,32.97
2018-03-29T08:33:30.562Z,29.60
2018-03-29T08:35:57.743Z,30.67
2018-03-29T08:38:24.766Z,33.63
2018-03-29T08:40:51.793Z,31.10
2018-03-29T08:43:18.850Z,35.70
2018-03-29T08:45:46.679Z,31.43
2018-03-29T08:48:13.686Z,32.70
2018-03-29T08:50:40.689Z,35.77
2018-03-29T08:53:07.746Z,36.43
2018-03-29T08:55:35.668Z,33.73
2018-03-29T08:58:02.697Z,34.50
2018-03-29T09:00:30.052Z,30.90
2018-03-29T09:02:57.140Z,36.07
2018-03-29T09:05:24.157Z,33.80
2018-03-29T09:07:51.186Z,36.73
2018-03-29T09:10:18.177Z,29.73
2018-03-29T09:12:45.201Z,29.40
2018-03-29T09:15:12.293Z,30.90
2018-03-29T09:17:39.280Z,32.60
2018-03-29T09:20:06.289Z,33.23
2018-03-29T09:22:33.348Z,30.97
2018-03-29T09:25:00.389Z,32.80
2018-03-29T09:27:28.148Z,32.40
2018-03-29T09:29:55.927Z,34.50
2018-03-29T09:32:22.925Z,34.13
2018-03-29T09:34:53.273Z,33.30
2018-03-29T09:37:20.569Z,31.00
2018-03-29T09:39:47.658Z,30.50
2018-03-29T09:42:14.973Z,32.20
2018-03-29T09:44:42.967Z,31.20
2018-03-29T09:47:10.094Z,29.97
2018-03-29T09:49:37.116Z,29.13
2018-03-29T09:52:04.877Z,28.00
2018-03-29T09:54:31.927Z,33.50
2018-03-29T09:56:59.687Z,28.43
2018-03-29T09:59:27.461Z,30.30
2018-03-29T10:01:54.517Z,31.10
2018-03-29T10:04:21.634Z,33.07
2018-03-29T10:06:49.590Z,40.73
2018-03-29T10:09:16.597Z,29.83
2018-03-29T10:11:43.601Z,30.10
2018-03-29T10:14:10.697Z,30.37
2018-03-29T10:16:38.109Z,30.17
2018-03-29T10:19:05.118Z,30.53
2018-03-29T10:21:32.129Z,31.00
2018-03-29T10:23:59.182Z,25.80
2018-03-29T10:26:26.221Z,30.37
2018-03-29T10:28:53.987Z,29.20
2018-03-29T10:31:21.014Z,27.17
2018-03-29T10:33:48.789Z,32.23
2018-03-29T10:36:16.555Z,28.10
2018-03-29T10:38:44.628Z,29.77
2018-03-29T10:41:11.776Z,31.90
2018-03-29T10:43:38.758Z,30.07
2018-03-29T10:46:05.917Z,28.97
2018-03-29T10:48:32.945Z,29.70
2018-03-29T10:51:01.134Z,27.93
2018-03-29T10:53:28.992Z,27.40
2018-03-29T10:55:56.052Z,32.60
2018-03-29T10:58:23.190Z,26.50
2018-03-29T11:00:50.282Z,28.17
2018-03-29T11:03:18.103Z,29.37
2018-03-29T11:05:45.154Z,28.00
2018-03-29T11:08:12.196Z,27.43
2018-03-29T11:10:39.453Z,27.63
2018-03-29T11:13:07.595Z,31.37
2018-03-29T11:15:34.792Z,26.70
2018-03-29T11:18:01.861Z,27.57
2018-03-29T11:20:28.945Z,27.70
2018-03-29T11:22:56.004Z,29.80
2018-03-29T11:25:23.032Z,27.13
2018-03-29T11:27:50.830Z,31.13
2018-03-29T11:30:17.830Z,32.20
2018-03-29T11:32:45.597Z,31.33
2018-03-29T11:35:12.650Z,29.00
2018-03-29T11:37:40.417Z,30.57
2018-03-29T11:40:07.516Z,29.90
2018-03-29T11:42:34.514Z,35.27
2018-03-29T11:45:01.514Z,32.03
2018-03-29T11:47:28.566Z,29.20
2018-03-29T11:49:55.591Z,32.07
2018-03-29T11:52:22.585Z,30.70
2018-03-29T11:54:49.617Z,31.97
2018-03-29T11:57:16.660Z,33.23
2018-03-29T11:59:43.679Z,36.63
2018-03-29T12:02:10.834Z,30.90
2018-03-29T12:04:37.872Z,31.77
2018-03-29T12:07:04.894Z,29.80
2018-03-29T12:09:33.017Z,30.97
2018-03-29T12:12:00.058Z,29.27
2018-03-29T12:14:27.065Z,29.87
2018-03-29T12:16:54.122Z,28.17
2018-03-29T12:19:21.165Z,30.07
2018-03-29T12:21:48.190Z,30.37
2018-03-29T12:24:16.035Z,27.67
2018-03-29T12:26:43.037Z,28.67
2018-03-29T12:29:10.034Z,29.30
2018-03-29T12:31:37.073Z,30.43
2018-03-29T12:34:04.360Z,28.73
2018-03-29T12:36:31.419Z,28.83
2018-03-29T12:38:58.494Z,29.30
2018-03-29T12:41:25.505Z,28.27
2018-03-29T12:43:53.249Z,29.20
2018-03-29T12:46:21.189Z,30.47
2018-03-29T12:48:48.053Z,30.57
2018-03-29T12:51:15.112Z,31.70
2018-03-29T12:53:42.165Z,28.87
2018-03-29T12:56:21.165Z,31.40
2018-03-29T12:58:48.197Z,28.27
2018-03-29T13:01:15.234Z,30.20
2018-03-29T13:03:42.274Z,31.60
2018-03-29T13:06:09.657Z,30.37
2018-03-29T13:08:37.454Z,30.20
2018-03-29T13:11:04.505Z,29.57
2018-03-29T13:13:32.283Z,29.53
2018-03-29T13:15:59.461Z,29.07
2018-03-29T13:18:26.501Z,26.07
2018-03-29T13:20:53.590Z,29.57
2018-03-29T13:23:20.606Z,32.03
2018-03-29T13:25:47.618Z,30.77
2018-03-29T13:28:15.381Z,32.00
2018-03-29T13:30:42.377Z,29.57
2018-03-29T13:33:09.420Z,28.13
2018-03-29T13:35:36.453Z,30.83
2018-03-29T13:38:03.726Z,31.00
2018-03-29T13:40:30.770Z,28.00
2018-03-29T13:42:57.804Z,28.27
2018-03-29T13:45:24.832Z,30.23
2018-03-29T13:47:51.827Z,30.53
2018-03-29T13:50:19.647Z,29.70
2018-03-29T13:52:46.645Z,28.10
2018-03-29T13:55:13.650Z,30.47
2018-03-29T13:57:41.384Z,32.40
2018-03-29T14:00:09.149Z,33.20
2018-03-29T14:02:36.189Z,34.03
2018-03-29T14:05:03.335Z,35.83
2018-03-29T14:07:30.367Z,32.97
2018-03-29T14:09:57.372Z,37.60
2018-03-29T14:12:24.437Z,38.63
2018-03-29T14:14:51.443Z,36.43
2018-03-29T14:17:18.478Z,39.97
2018-03-29T14:19:46.522Z,32.83
2018-03-29T14:22:13.746Z,31.13
2018-03-29T14:24:40.948Z,32.17
2018-03-29T14:27:08.950Z,33.97
2018-03-29T14:29:36.066Z,31.10
2018-03-29T14:32:03.091Z,33.37
2018-03-29T14:34:31.101Z,31.20
2018-03-29T14:36:59.458Z,35.07
2018-03-29T14:39:26.503Z,35.57
2018-03-29T14:41:53.522Z,37.53
2018-03-29T14:44:20.705Z,35.10
2018-03-29T14:46:47.766Z,31.37
2018-03-29T14:49:15.534Z,37.37
2018-03-29T14:51:42.537Z,37.27
2018-03-29T14:54:09.886Z,38.67
2018-03-29T14:56:37.205Z,38.00
2018-03-29T14:59:04.390Z,42.43
2018-03-29T15:01:31.503Z,38.50
2018-03-29T15:03:58.677Z,37.57
2018-03-29T15:06:25.935Z,38.30
2018-03-29T15:08:53.116Z,35.40
2018-03-29T15:11:20.214Z,39.20
2018-03-29T15:13:52.374Z,35.17
2018-03-29T15:16:20.122Z,42.00
2018-03-29T15:18:47.398Z,37.30
2018-03-29T15:21:15.242Z,38.47
2018-03-29T15:23:46.544Z,41.43
2018-03-29T15:26:13.570Z,39.40
2018-03-29T15:28:40.608Z,36.77
2018-03-29T15:31:07.685Z,38.10
2018-03-29T15:33:34.774Z,40.77
2018-03-29T15:36:02.636Z,40.47
2018-03-29T15:38:31.230Z,39.83
2018-03-29T15:40:58.687Z,39.97
2018-03-29T15:43:25.849Z,39.83
2018-03-29T15:45:53.773Z,43.60
2018-03-29T15:48:20.828Z,41.40
2018-03-29T15:50:48.490Z,43.63
2018-03-29T15:53:15.598Z,40.87
2018-03-29T15:55:42.795Z,40.47
2018-03-29T15:58:09.928Z,46.50
2018-03-29T16:00:39.308Z,46.30
2018-03-29T16:03:06.696Z,42.50
2018-03-29T16:05:35.293Z,40.53
2018-03-29T16:08:03.147Z,41.57
2018-03-29T16:10:30.919Z,42.90
2018-03-29T16:12:58.406Z,38.03
2018-03-29T16:15:25.502Z,45.73
2018-03-29T16:17:53.491Z,38.87
2018-03-29T16:20:21.454Z,39.63
2018-03-29T16:22:49.482Z,38.87
2018-03-29T16:25:17.589Z,38.43
2018-03-29T16:27:44.729Z,43.73
2018-03-29T16:30:11.880Z,45.27
2018-03-29T16:32:39.769Z,44.57
2018-03-29T16:35:06.875Z,42.00
2018-03-29T16:37:33.994Z,38.53
2018-03-29T16:40:02.898Z,45.03
2018-03-29T16:42:30.024Z,40.13
2018-03-29T16:44:59.082Z,44.97
2018-03-29T16:47:26.107Z,38.63
2018-03-29T16:49:53.226Z,35.53
2018-03-29T16:52:21.002Z,42.83
2018-03-29T16:54:48.263Z,39.60
2018-03-29T16:57:16.082Z,39.10
2018-03-29T16:59:43.168Z,40.23
2018-03-29T17:02:11.017Z,40.50
2018-03-29T17:04:39.101Z,39.83
2018-03-29T17:07:07.162Z,39.37
2018-03-29T17:09:34.437Z,48.23
2018-03-29T17:12:02.457Z,40.97
2018-03-29T17:14:29.706Z,45.97
2018-03-29T17:16:56.913Z,41.53
2018-03-29T17:19:24.031Z,40.60
2018-03-29T17:21:51.126Z,45.67
2018-03-29T17:24:25.861Z,49.50
2018-03-29T17:26:53.065Z,46.43
2018-03-29T17:29:20.392Z,44.97
2018-03-29T17:31:48.370Z,45.30
2018-03-29T17:34:20.949Z,38.33
2018-03-29T17:36:48.139Z,40.47
2018-03-29T17:39:15.279Z,43.87
2018-03-29T17:41:43.203Z,37.53
2018-03-29T17:44:10.556Z,40.03
2018-03-29T17:46:37.697Z,32.43
2018-03-29T17:49:04.794Z,36.00
2018-03-29T17:51:32.312Z,30.57
2018-03-29T17:53:59.464Z,34.80
2018-03-29T17:56:26.534Z,34.70
2018-03-29T17:58:53.643Z,25.70
2018-03-29T18:01:20.984Z,23.33
2018-03-29T18:03:49.919Z,24.93
2018-03-29T18:06:17.335Z,23.30
2018-03-29T18:08:44.449Z,23.43
2018-03-29T18:11:11.511Z,25.80
2018-03-29T18:13:40.346Z,21.10
2018-03-29T18:16:07.458Z,20.97
2018-03-29T18:18:34.535Z,22.07
2018-03-29T18:21:02.769Z,20.20
2018-03-29T18:23:30.874Z,22.00
2018-03-29T18:25:58.697Z,19.27
2018-03-29T18:28:25.735Z,16.50
2018-03-29T18:30:52.781Z,19.30
2018-03-29T18:33:20.922Z,15.13
2018-03-29T18:35:48.005Z,17.37
2018-03-29T18:38:15.078Z,15.13
2018-03-29T18:40:42.534Z,15.37
2018-03-29T18:43:09.618Z,13.37
2018-03-29T18:45:38.773Z,12.60
2018-03-29T18:48:05.834Z,10.03
2018-03-29T18:50:32.846Z,12.93
2018-03-29T18:53:00.295Z,10.93
2018-03-29T18:55:27.410Z,8.23
2018-03-29T18:57:54.511Z,7.03
2018-03-29T19:00:21.688Z,7.13
2018-03-29T19:02:48.751Z,10.83
2018-03-29T19:05:16.922Z,8.63
2018-03-29T19:07:44.759Z,7.40
2018-03-29T19:10:12.950Z,7.10
2018-03-29T19:12:40.000Z,8.47
2018-03-29T19:15:08.931Z,5.93
2018-03-29T19:17:36.038Z,6.50
2018-03-29T19:20:03.149Z,5.90
2018-03-29T19:22:30.238Z,5.50
2018-03-29T19:24:59.376Z,6.63
2018-03-29T19:27:26.486Z,5.00
2018-03-29T19:29:53.615Z,4.90
2018-03-29T19:32:20.898Z,3.97
2018-03-29T19:34:48.726Z,4.17
2018-03-29T19:37:15.772Z,4.77
2018-03-29T19:39:43.499Z,4.07
2018-03-29T19:42:10.636Z,4.40
2018-03-29T19:44:37.803Z,5.40
2018-03-29T19:47:04.857Z,4.60
2018-03-29T19:49:32.268Z,3.97
2018-03-29T19:51:59.306Z,4.63
2018-03-29T19:54:26.435Z,4.83
2018-03-29T19:56:54.116Z,4.23
2018-03-29T19:59:21.917Z,4.90
2018-03-29T20:01:49.287Z,6.67
2018-03-29T20:04:20.619Z,5.70
2018-03-29T20:06:48.410Z,7.20
2018-03-29T20:09:15.478Z,7.30
2018-03-29T20:11:45.213Z,7.30
2018-03-29T20:14:13.182Z,10.10
2018-03-29T20:16:40.299Z,7.80
2018-03-29T20:19:07.432Z,8.03
2018-03-29T20:21:34.507Z,9.00
2018-03-29T20:24:01.587Z,7.90
2018-03-29T20:26:28.670Z,8.43
2018-03-29T20:28:55.745Z,7.83
2018-03-29T20:31:22.786Z,8.83
2018-03-29T20:33:52.635Z,8.37
2018-03-29T20:36:19.637Z,7.97
2018-03-29T20:38:48.030Z,8.03
2018-03-29T20:41:15.142Z,8.07
2018-03-29T20:43:42.766Z,8.07
2018-03-29T20:46:09.835Z,7.37
2018-03-29T20:48:37.716Z,6.90
2018-03-29T20:51:05.023Z,6.37
2018-03-29T20:53:34.283Z,7.87
2018-03-29T20:56:01.403Z,5.90
2018-03-29T20:58:29.175Z,6.30
2018-03-29T21:00:56.468Z,9.40
2018-03-29T21:03:24.078Z,5.37
2018-03-29T21:05:52.093Z,4.80
2018-03-29T21:08:19.267Z,3.53
2018-03-29T21:10:46.834Z,3.73
2018-03-29T21:13:13.909Z,4.03
2018-03-29T21:15:48.992Z,3.80
2018-03-29T21:18:16.704Z,2.33
2018-03-29T21:20:43.719Z,2.43
2018-03-29T21:23:11.090Z,2.27
2018-03-29T21:25:47.418Z,3.13
2018-03-29T21:28:14.455Z,2.00
2018-03-29T21:30:41.705Z,2.90
2018-03-29T21:33:09.471Z,2.77
2018-03-29T21:35:36.571Z,1.57
2018-03-29T21:38:04.355Z,1.87
2018-03-29T21:40:31.408Z,2.80
2018-03-29T21:42:59.208Z,1.20
2018-03-29T21:45:28.321Z,3.60
2018-03-29T21:47:55.455Z,1.67
2018-03-29T21:50:29.403Z,0.87
2018-03-29T21:52:57.258Z,2.00
2018-03-29T21:55:25.358Z,1.60
2018-03-29T21:57:52.456Z,1.73
2018-03-29T22:00:19.583Z,1.20
2018-03-29T22:02:46.642Z,1.30
2018-03-29T22:05:21.879Z,0.90
2018-03-29T22:07:49.482Z,0.80
2018-03-29T22:10:16.525Z,1.63
2018-03-29T22:12:43.868Z,1.50
2018-03-29T22:15:11.064Z,1.33
2018-03-29T22:17:38.173Z,2.40
2018-03-29T22:20:05.258Z,1.50
2018-03-29T22:22:32.366Z,0.83
2018-03-29T22:25:00.445Z,3.77
2018-03-29T22:27:28.063Z,1.33
2018-03-29T22:29:55.164Z,2.17
2018-03-29T22:32:22.240Z,3.80
2018-03-29T22:34:56.844Z,1.63
2018-03-29T22:37:24.378Z,0.90
2018-03-29T22:39:51.489Z,1.30
2018-03-29T22:42:18.581Z,1.17
2018-03-29T22:44:46.694Z,1.37
2018-03-29T22:47:13.739Z,1.13
2018-03-29T22:49:40.818Z,1.67
2018-03-29T22:52:07.906Z,0.80
2018-03-29T22:54:41.638Z,1.33
2018-03-29T22:57:09.290Z,1.10
2018-03-29T22:59:37.183Z,1.03
2018-03-29T23:02:04.298Z,1.00
2018-03-29T23:04:42.908Z,1.33
2018-03-29T23:07:09.942Z,2.10
2018-03-29T23:09:37.038Z,2.80
2018-03-29T23:12:04.882Z,1.87
2018-03-29T23:14:32.069Z,1.03
2018-03-29T23:16:59.815Z,0.97
2018-03-29T23:19:26.804Z,1.60
2018-03-29T23:21:54.205Z,1.00
2018-03-29T23:24:31.404Z,1.70
2018-03-29T23:26:59.066Z,1.57
2018-03-29T23:29:26.133Z,1.67
2018-03-29T23:31:53.221Z,1.23
2018-03-29T23:34:20.825Z,0.80
2018-03-29T23:36:48.622Z,2.17
2018-03-29T23:39:15.747Z,1.70
2018-03-29T23:41:42.861Z,3.20
2018-03-29T23:44:17.054Z,1.33
2018-03-29T23:46:44.762Z,1.87
2018-03-29T23:49:12.566Z,1.20
2018-03-29T23:51:39.614Z,1.70
2018-03-29T23:54:07.211Z,1.17
2018-03-29T23:56:34.257Z,1.93
2018-03-29T23:59:01.324Z,1.47
